Aberdeen, California
Current Conditions -  °F | °C
As of 12:56 PM on Friday 24 Oct 2014 (Local Time) from KBIH Reporting Station
Clear Clear  
Wind Chill: 26°   Ceiling: Unl
Heat Index: 26°   Visibility: 10mi
Dew Point: -7°   Wind: 23mph
Humidity: 11%   Direction: 160°SSE
Pressure: 30.03"   Gusts: 33mph
Location:  36.9237°N, 117.897°W
Report Text: KBIH 241956Z AUTO 16020G29KT 10SM CLR 26/M07 A3003 RMK AO2 PK WND 17030/1939 SLP136 T02611072
Loading
Personal Weather Stations






























Interactive Weather Map
Tropical Storm Tracking
New forecast layout! Learn more

10-Day Weather Forecast

Advertisements
Track Severe Weather on mobile